Terminal Aerodrome Forecast
Issued by NWS Portland, OR

Home | Current Version | Previous Version | Text Only | Print | Product List | Glossary On
Versions: 1 2 3 4 5 6 7 8 9 10 11 12 13 14 15 16 17 18 19 20 21 22 23 24 25 26
000
FTUS46 KPQR 230537
TAFPDX
TAF
KPDX 230537Z 2306/2406 12012KT P6SM -RA SCT015 OVC025
     FM230800 12010KT 4SM -RADZ BR SCT007 BKN015 OVC025
     FM231800 19012KT 6SM -RADZ BR SCT015 BKN025 OVC040
     FM232200 23010KT P6SM -SHRA SCT025 BKN040=

USA.gov is the U.S. government's official web portal to all federal, state and local government web resources and services.